sensor_id;sensor_type;location;lat;lon;timestamp;P1;durP1;ratioP1;P2;durP2;ratioP2
30036;SDS011;36325;51.512;-0.382;2022-09-27T00:00:42;10.30;;;1.33;;
30036;SDS011;36325;51.512;-0.382;2022-09-27T00:03:10;6.05;;;1.30;;
30036;SDS011;36325;51.512;-0.382;2022-09-27T00:05:39;5.85;;;1.52;;
30036;SDS011;36325;51.512;-0.382;2022-09-27T00:08:06;7.22;;;1.25;;
30036;SDS011;36325;51.512;-0.382;2022-09-27T00:10:33;5.68;;;1.17;;
30036;SDS011;36325;51.512;-0.382;2022-09-27T00:13:01;2.95;;;0.70;;
30036;SDS011;36325;51.512;-0.382;2022-09-27T00:15:29;4.68;;;1.42;;
30036;SDS011;36325;51.512;-0.382;2022-09-27T00:17:56;1.98;;;1.00;;
30036;SDS011;36325;51.512;-0.382;2022-09-27T00:20:23;9.25;;;1.02;;
30036;SDS011;36325;51.512;-0.382;2022-09-27T00:22:51;12.73;;;1.55;;
30036;SDS011;36325;51.512;-0.382;2022-09-27T00:25:18;7.45;;;1.73;;
30036;SDS011;36325;51.512;-0.382;2022-09-27T00:27:46;11.93;;;1.38;;
30036;SDS011;36325;51.512;-0.382;2022-09-27T00:30:13;8.57;;;1.40;;
30036;SDS011;36325;51.512;-0.382;2022-09-27T00:32:40;9.43;;;1.27;;
30036;SDS011;36325;51.512;-0.382;2022-09-27T00:35:07;8.68;;;1.17;;
30036;SDS011;36325;51.512;-0.382;2022-09-27T00:37:35;10.13;;;1.30;;
30036;SDS011;36325;51.512;-0.382;2022-09-27T00:40:02;4.25;;;1.17;;
30036;SDS011;36325;51.512;-0.382;2022-09-27T00:42:30;6.30;;;1.15;;
30036;SDS011;36325;51.512;-0.382;2022-09-27T00:44:59;5.90;;;0.98;;
30036;SDS011;36325;51.512;-0.382;2022-09-27T00:47:31;5.90;;;1.40;;
30036;SDS011;36325;51.512;-0.382;2022-09-27T00:50:42;12.23;;;1.60;;
30036;SDS011;36325;51.512;-0.382;2022-09-27T00:53:09;5.25;;;1.33;;
30036;SDS011;36325;51.512;-0.382;2022-09-27T00:56:02;10.00;;;1.00;;
30036;SDS011;36325;51.512;-0.382;2022-09-27T00:58:36;4.13;;;0.95;;
30036;SDS011;36325;51.512;-0.382;2022-09-27T01:01:08;6.93;;;1.35;;
30036;SDS011;36325;51.512;-0.382;2022-09-27T01:06:20;6.55;;;0.85;;
30036;SDS011;36325;51.512;-0.382;2022-09-27T01:08:54;13.13;;;2.03;;
30036;SDS011;36325;51.512;-0.382;2022-09-27T01:11:27;4.15;;;1.15;;
30036;SDS011;36325;51.512;-0.382;2022-09-27T01:22:28;6.22;;;1.10;;
30036;SDS011;36325;51.512;-0.382;2022-09-27T01:28:08;4.13;;;1.02;;
30036;SDS011;36325;51.512;-0.382;2022-09-27T01:30:39;6.10;;;0.75;;
30036;SDS011;36325;51.512;-0.382;2022-09-27T01:36:06;6.03;;;1.05;;
30036;SDS011;36325;51.512;-0.382;2022-09-27T01:41:42;11.68;;;1.23;;
30036;SDS011;36325;51.512;-0.382;2022-09-27T01:45:02;7.05;;;1.15;;
30036;SDS011;36325;51.512;-0.382;2022-09-27T01:48:01;3.33;;;0.90;;
30036;SDS011;36325;51.512;-0.382;2022-09-27T01:53:37;6.00;;;1.52;;
30036;SDS011;36325;51.512;-0.382;2022-09-27T01:56:37;8.50;;;0.73;;
30036;SDS011;36325;51.512;-0.382;2022-09-27T01:59:18;10.30;;;1.17;;
30036;SDS011;36325;51.512;-0.382;2022-09-27T02:08:04;4.53;;;0.90;;
30036;SDS011;36325;51.512;-0.382;2022-09-27T02:10:40;3.33;;;1.10;;
30036;SDS011;36325;51.512;-0.382;2022-09-27T02:13:23;8.20;;;1.42;;
30036;SDS011;36325;51.512;-0.382;2022-09-27T02:16:51;4.57;;;0.80;;
30036;SDS011;36325;51.512;-0.382;2022-09-27T02:19:30;5.85;;;1.17;;
30036;SDS011;36325;51.512;-0.382;2022-09-27T02:22:37;12.95;;;1.40;;
30036;SDS011;36325;51.512;-0.382;2022-09-27T02:30:34;7.80;;;1.27;;
30036;SDS011;36325;51.512;-0.382;2022-09-27T02:33:15;7.28;;;1.30;;
30036;SDS011;36325;51.512;-0.382;2022-09-27T02:35:48;10.20;;;1.63;;
30036;SDS011;36325;51.512;-0.382;2022-09-27T02:38:15;4.68;;;0.80;;
30036;SDS011;36325;51.512;-0.382;2022-09-27T02:40:44;10.00;;;0.88;;
30036;SDS011;36325;51.512;-0.382;2022-09-27T02:43:13;7.43;;;1.52;;
30036;SDS011;36325;51.512;-0.382;2022-09-27T02:51:40;3.30;;;0.80;;
30036;SDS011;36325;51.512;-0.382;2022-09-27T02:57:11;13.77;;;1.73;;
30036;SDS011;36325;51.512;-0.382;2022-09-27T03:00:29;6.93;;;1.73;;
30036;SDS011;36325;51.512;-0.382;2022-09-27T03:04:08;6.05;;;1.25;;
30036;SDS011;36325;51.512;-0.382;2022-09-27T03:06:49;9.63;;;0.90;;
30036;SDS011;36325;51.512;-0.382;2022-09-27T03:11:50;9.05;;;1.20;;
30036;SDS011;36325;51.512;-0.382;2022-09-27T03:14:19;3.72;;;1.00;;
30036;SDS011;36325;51.512;-0.382;2022-09-27T03:16:58;6.53;;;1.40;;
30036;SDS011;36325;51.512;-0.382;2022-09-27T03:19:49;8.93;;;2.45;;
30036;SDS011;36325;51.512;-0.382;2022-09-27T03:22:44;9.18;;;1.98;;
30036;SDS011;36325;51.512;-0.382;2022-09-27T03:25:12;9.57;;;1.35;;
30036;SDS011;36325;51.512;-0.382;2022-09-27T03:27:40;4.78;;;1.17;;
30036;SDS011;36325;51.512;-0.382;2022-09-27T03:30:09;5.45;;;1.02;;
30036;SDS011;36325;51.512;-0.382;2022-09-27T03:32:40;13.70;;;1.40;;
30036;SDS011;36325;51.512;-0.382;2022-09-27T03:35:27;6.00;;;1.00;;
30036;SDS011;36325;51.512;-0.382;2022-09-27T03:37:55;5.65;;;1.05;;
30036;SDS011;36325;51.512;-0.382;2022-09-27T03:40:22;11.68;;;1.67;;
30036;SDS011;36325;51.512;-0.382;2022-09-27T03:42:49;10.15;;;1.65;;
30036;SDS011;36325;51.512;-0.382;2022-09-27T03:45:17;6.78;;;1.20;;
30036;SDS011;36325;51.512;-0.382;2022-09-27T03:47:44;8.68;;;1.42;;
30036;SDS011;36325;51.512;-0.382;2022-09-27T03:50:12;22.92;;;2.00;;
30036;SDS011;36325;51.512;-0.382;2022-09-27T03:52:41;5.50;;;1.10;;
30036;SDS011;36325;51.512;-0.382;2022-09-27T03:55:10;7.10;;;1.13;;
30036;SDS011;36325;51.512;-0.382;2022-09-27T03:57:37;13.85;;;1.23;;
30036;SDS011;36325;51.512;-0.382;2022-09-27T04:00:07;7.40;;;1.35;;
30036;SDS011;36325;51.512;-0.382;2022-09-27T04:02:37;8.48;;;1.50;;
30036;SDS011;36325;51.512;-0.382;2022-09-27T04:05:23;5.95;;;1.02;;
30036;SDS011;36325;51.512;-0.382;2022-09-27T04:07:58;10.30;;;1.80;;
30036;SDS011;36325;51.512;-0.382;2022-09-27T04:10:26;7.75;;;1.30;;
30036;SDS011;36325;51.512;-0.382;2022-09-27T04:12:53;4.68;;;1.38;;
30036;SDS011;36325;51.512;-0.382;2022-09-27T04:15:24;7.93;;;1.45;;
30036;SDS011;36325;51.512;-0.382;2022-09-27T04:18:11;7.78;;;1.15;;
30036;SDS011;36325;51.512;-0.382;2022-09-27T04:21:02;8.40;;;1.98;;
30036;SDS011;36325;51.512;-0.382;2022-09-27T04:23:30;21.08;;;2.00;;
30036;SDS011;36325;51.512;-0.382;2022-09-27T04:25:59;17.98;;;2.63;;
30036;SDS011;36325;51.512;-0.382;2022-09-27T04:28:45;10.75;;;1.50;;
30036;SDS011;36325;51.512;-0.382;2022-09-27T04:31:16;6.73;;;1.53;;
30036;SDS011;36325;51.512;-0.382;2022-09-27T04:33:50;8.82;;;1.50;;
30036;SDS011;36325;51.512;-0.382;2022-09-27T04:36:25;8.63;;;1.42;;
30036;SDS011;36325;51.512;-0.382;2022-09-27T04:39:13;8.57;;;1.70;;
30036;SDS011;36325;51.512;-0.382;2022-09-27T04:41:42;8.77;;;1.77;;
30036;SDS011;36325;51.512;-0.382;2022-09-27T04:44:10;10.70;;;1.83;;
30036;SDS011;36325;51.512;-0.382;2022-09-27T04:46:41;12.27;;;1.52;;
30036;SDS011;36325;51.512;-0.382;2022-09-27T04:49:09;16.25;;;1.23;;
30036;SDS011;36325;51.512;-0.382;2022-09-27T04:51:37;8.88;;;2.20;;
30036;SDS011;36325;51.512;-0.382;2022-09-27T04:54:04;7.20;;;2.15;;
30036;SDS011;36325;51.512;-0.382;2022-09-27T04:56:36;12.82;;;1.75;;
30036;SDS011;36325;51.512;-0.382;2022-09-27T04:59:04;9.88;;;1.48;;
30036;SDS011;36325;51.512;-0.382;2022-09-27T05:01:33;9.80;;;1.70;;
30036;SDS011;36325;51.512;-0.382;2022-09-27T05:04:21;10.88;;;1.65;;
30036;SDS011;36325;51.512;-0.382;2022-09-27T05:06:51;7.70;;;1.73;;
30036;SDS011;36325;51.512;-0.382;2022-09-27T05:09:30;8.00;;;1.10;;
30036;SDS011;36325;51.512;-0.382;2022-09-27T05:11:58;6.25;;;1.38;;
30036;SDS011;36325;51.512;-0.382;2022-09-27T05:14:31;10.93;;;1.20;;
30036;SDS011;36325;51.512;-0.382;2022-09-27T05:17:13;7.15;;;1.40;;
30036;SDS011;36325;51.512;-0.382;2022-09-27T05:19:52;9.32;;;1.88;;
30036;SDS011;36325;51.512;-0.382;2022-09-27T05:22:27;9.82;;;1.27;;
30036;SDS011;36325;51.512;-0.382;2022-09-27T05:24:55;7.90;;;1.35;;
30036;SDS011;36325;51.512;-0.382;2022-09-27T05:27:23;8.82;;;1.92;;
30036;SDS011;36325;51.512;-0.382;2022-09-27T05:29:50;5.43;;;1.20;;
30036;SDS011;36325;51.512;-0.382;2022-09-27T05:32:24;5.90;;;1.10;;
30036;SDS011;36325;51.512;-0.382;2022-09-27T05:35:11;8.20;;;1.00;;
30036;SDS011;36325;51.512;-0.382;2022-09-27T05:37:38;4.47;;;1.38;;
30036;SDS011;36325;51.512;-0.382;2022-09-27T05:40:06;7.43;;;1.30;;
30036;SDS011;36325;51.512;-0.382;2022-09-27T05:42:54;12.00;;;1.33;;
30036;SDS011;36325;51.512;-0.382;2022-09-27T05:45:22;6.53;;;1.40;;
30036;SDS011;36325;51.512;-0.382;2022-09-27T05:47:52;10.40;;;1.45;;
30036;SDS011;36325;51.512;-0.382;2022-09-27T05:50:25;6.25;;;1.17;;
30036;SDS011;36325;51.512;-0.382;2022-09-27T05:52:52;5.82;;;0.95;;
30036;SDS011;36325;51.512;-0.382;2022-09-27T05:55:21;8.00;;;0.93;;
30036;SDS011;36325;51.512;-0.382;2022-09-27T06:00:37;3.67;;;1.00;;
30036;SDS011;36325;51.512;-0.382;2022-09-27T06:03:25;8.55;;;1.23;;
30036;SDS011;36325;51.512;-0.382;2022-09-27T06:06:10;7.55;;;0.95;;
30036;SDS011;36325;51.512;-0.382;2022-09-27T06:08:46;8.02;;;1.05;;
30036;SDS011;36325;51.512;-0.382;2022-09-27T06:11:17;10.13;;;1.38;;
30036;SDS011;36325;51.512;-0.382;2022-09-27T06:13:48;9.90;;;1.27;;
30036;SDS011;36325;51.512;-0.382;2022-09-27T06:16:15;7.05;;;1.40;;
30036;SDS011;36325;51.512;-0.382;2022-09-27T06:18:44;7.38;;;0.93;;
30036;SDS011;36325;51.512;-0.382;2022-09-27T06:21:11;6.03;;;0.85;;
30036;SDS011;36325;51.512;-0.382;2022-09-27T06:23:44;8.30;;;2.03;;
30036;SDS011;36325;51.512;-0.382;2022-09-27T06:26:17;3.83;;;0.82;;
30036;SDS011;36325;51.512;-0.382;2022-09-27T06:28:53;6.30;;;1.23;;
30036;SDS011;36325;51.512;-0.382;2022-09-27T06:31:22;3.65;;;1.15;;
30036;SDS011;36325;51.512;-0.382;2022-09-27T06:34:02;3.05;;;0.60;;
30036;SDS011;36325;51.512;-0.382;2022-09-27T06:36:29;7.20;;;1.10;;
30036;SDS011;36325;51.512;-0.382;2022-09-27T06:38:58;8.73;;;1.15;;
30036;SDS011;36325;51.512;-0.382;2022-09-27T06:41:30;6.10;;;0.90;;
30036;SDS011;36325;51.512;-0.382;2022-09-27T06:44:04;8.05;;;1.30;;
30036;SDS011;36325;51.512;-0.382;2022-09-27T06:47:00;6.18;;;0.80;;
30036;SDS011;36325;51.512;-0.382;2022-09-27T06:49:47;6.22;;;1.00;;
30036;SDS011;36325;51.512;-0.382;2022-09-27T06:52:17;3.70;;;1.02;;
30036;SDS011;36325;51.512;-0.382;2022-09-27T06:54:45;10.05;;;1.17;;
30036;SDS011;36325;51.512;-0.382;2022-09-27T06:57:12;8.50;;;1.30;;
30036;SDS011;36325;51.512;-0.382;2022-09-27T06:59:59;9.10;;;1.58;;
30036;SDS011;36325;51.512;-0.382;2022-09-27T07:03:04;7.05;;;1.00;;
30036;SDS011;36325;51.512;-0.382;2022-09-27T07:05:55;9.60;;;1.45;;
30036;SDS011;36325;51.512;-0.382;2022-09-27T07:08:50;8.52;;;1.33;;
30036;SDS011;36325;51.512;-0.382;2022-09-27T07:11:19;7.57;;;1.42;;
30036;SDS011;36325;51.512;-0.382;2022-09-27T07:13:50;7.22;;;0.98;;
30036;SDS011;36325;51.512;-0.382;2022-09-27T07:16:17;10.65;;;1.20;;
30036;SDS011;36325;51.512;-0.382;2022-09-27T07:18:47;8.02;;;1.30;;
30036;SDS011;36325;51.512;-0.382;2022-09-27T07:21:15;11.98;;;1.23;;
30036;SDS011;36325;51.512;-0.382;2022-09-27T07:23:43;20.95;;;1.23;;
30036;SDS011;36325;51.512;-0.382;2022-09-27T07:26:12;8.32;;;1.45;;
30036;SDS011;36325;51.512;-0.382;2022-09-27T07:28:40;5.20;;;0.98;;
30036;SDS011;36325;51.512;-0.382;2022-09-27T07:31:11;15.98;;;1.95;;
30036;SDS011;36325;51.512;-0.382;2022-09-27T07:33:39;11.10;;;2.25;;
30036;SDS011;36325;51.512;-0.382;2022-09-27T07:36:10;9.75;;;2.35;;
30036;SDS011;36325;51.512;-0.382;2022-09-27T07:38:41;13.93;;;1.77;;
30036;SDS011;36325;51.512;-0.382;2022-09-27T07:41:09;11.27;;;1.55;;
30036;SDS011;36325;51.512;-0.382;2022-09-27T07:43:42;8.55;;;1.92;;
30036;SDS011;36325;51.512;-0.382;2022-09-27T07:46:10;16.88;;;1.92;;
30036;SDS011;36325;51.512;-0.382;2022-09-27T07:48:49;23.00;;;3.10;;
30036;SDS011;36325;51.512;-0.382;2022-09-27T07:51:51;9.57;;;1.48;;
30036;SDS011;36325;51.512;-0.382;2022-09-27T07:54:37;8.82;;;1.58;;
30036;SDS011;36325;51.512;-0.382;2022-09-27T07:57:04;10.32;;;1.65;;
30036;SDS011;36325;51.512;-0.382;2022-09-27T07:59:40;5.63;;;1.45;;
30036;SDS011;36325;51.512;-0.382;2022-09-27T08:02:14;21.25;;;2.08;;
30036;SDS011;36325;51.512;-0.382;2022-09-27T08:04:44;14.05;;;2.17;;
30036;SDS011;36325;51.512;-0.382;2022-09-27T08:07:13;13.00;;;2.22;;
30036;SDS011;36325;51.512;-0.382;2022-09-27T08:09:43;14.27;;;2.10;;
30036;SDS011;36325;51.512;-0.382;2022-09-27T08:12:11;19.48;;;2.22;;
30036;SDS011;36325;51.512;-0.382;2022-09-27T08:14:38;24.52;;;2.65;;
30036;SDS011;36325;51.512;-0.382;2022-09-27T08:17:11;21.45;;;3.10;;
30036;SDS011;36325;51.512;-0.382;2022-09-27T08:20:00;12.85;;;2.17;;
30036;SDS011;36325;51.512;-0.382;2022-09-27T08:23:10;15.57;;;2.70;;
30036;SDS011;36325;51.512;-0.382;2022-09-27T08:25:41;12.30;;;3.08;;
30036;SDS011;36325;51.512;-0.382;2022-09-27T08:28:25;16.20;;;2.42;;
30036;SDS011;36325;51.512;-0.382;2022-09-27T08:31:01;12.80;;;1.90;;
30036;SDS011;36325;51.512;-0.382;2022-09-27T08:33:30;17.58;;;2.42;;
30036;SDS011;36325;51.512;-0.382;2022-09-27T08:35:59;14.13;;;3.33;;
30036;SDS011;36325;51.512;-0.382;2022-09-27T08:38:27;17.63;;;2.25;;
30036;SDS011;36325;51.512;-0.382;2022-09-27T08:40:56;17.15;;;2.15;;
30036;SDS011;36325;51.512;-0.382;2022-09-27T08:46:06;21.13;;;2.58;;
30036;SDS011;36325;51.512;-0.382;2022-09-27T08:49:04;9.23;;;2.00;;
30036;SDS011;36325;51.512;-0.382;2022-09-27T08:51:38;14.55;;;1.98;;
30036;SDS011;36325;51.512;-0.382;2022-09-27T08:54:14;10.93;;;1.38;;
30036;SDS011;36325;51.512;-0.382;2022-09-27T08:56:47;10.98;;;1.90;;
30036;SDS011;36325;51.512;-0.382;2022-09-27T08:59:16;9.90;;;2.03;;
30036;SDS011;36325;51.512;-0.382;2022-09-27T09:01:49;18.48;;;2.33;;
30036;SDS011;36325;51.512;-0.382;2022-09-27T09:04:29;9.73;;;2.17;;
30036;SDS011;36325;51.512;-0.382;2022-09-27T09:07:07;10.02;;;2.33;;
30036;SDS011;36325;51.512;-0.382;2022-09-27T09:10:17;14.88;;;2.33;;
30036;SDS011;36325;51.512;-0.382;2022-09-27T09:13:58;11.23;;;2.42;;
30036;SDS011;36325;51.512;-0.382;2022-09-27T09:16:43;15.43;;;2.35;;
30036;SDS011;36325;51.512;-0.382;2022-09-27T09:20:13;16.08;;;2.25;;
30036;SDS011;36325;51.512;-0.382;2022-09-27T09:23:08;14.07;;;2.42;;
30036;SDS011;36325;51.512;-0.382;2022-09-27T09:26:03;14.50;;;2.20;;
30036;SDS011;36325;51.512;-0.382;2022-09-27T09:29:03;11.20;;;2.60;;
30036;SDS011;36325;51.512;-0.382;2022-09-27T09:32:04;10.32;;;1.83;;
30036;SDS011;36325;51.512;-0.382;2022-09-27T09:34:47;9.27;;;2.53;;
30036;SDS011;36325;51.512;-0.382;2022-09-27T09:37:22;12.00;;;2.42;;
30036;SDS011;36325;51.512;-0.382;2022-09-27T09:39:59;8.88;;;2.40;;
30036;SDS011;36325;51.512;-0.382;2022-09-27T09:42:44;13.68;;;2.75;;
30036;SDS011;36325;51.512;-0.382;2022-09-27T09:45:29;17.60;;;2.63;;
30036;SDS011;36325;51.512;-0.382;2022-09-27T09:50:47;17.30;;;2.83;;
30036;SDS011;36325;51.512;-0.382;2022-09-27T09:56:35;18.27;;;2.88;;
30036;SDS011;36325;51.512;-0.382;2022-09-27T09:59:13;18.05;;;3.13;;
30036;SDS011;36325;51.512;-0.382;2022-09-27T10:01:50;18.20;;;2.28;;
30036;SDS011;36325;51.512;-0.382;2022-09-27T10:04:25;13.43;;;2.20;;
30036;SDS011;36325;51.512;-0.382;2022-09-27T10:06:56;11.52;;;2.38;;
30036;SDS011;36325;51.512;-0.382;2022-09-27T10:09:30;19.23;;;3.97;;
30036;SDS011;36325;51.512;-0.382;2022-09-27T10:12:34;10.30;;;2.20;;
30036;SDS011;36325;51.512;-0.382;2022-09-27T10:15:03;20.17;;;2.63;;
30036;SDS011;36325;51.512;-0.382;2022-09-27T10:17:36;14.32;;;2.58;;
30036;SDS011;36325;51.512;-0.382;2022-09-27T10:20:16;8.80;;;2.00;;
30036;SDS011;36325;51.512;-0.382;2022-09-27T10:23:10;10.15;;;2.35;;
30036;SDS011;36325;51.512;-0.382;2022-09-27T10:26:03;9.75;;;2.45;;
30036;SDS011;36325;51.512;-0.382;2022-09-27T10:28:37;15.90;;;2.17;;
30036;SDS011;36325;51.512;-0.382;2022-09-27T10:31:11;15.43;;;2.25;;
30036;SDS011;36325;51.512;-0.382;2022-09-27T10:33:57;12.50;;;2.85;;
30036;SDS011;36325;51.512;-0.382;2022-09-27T10:36:33;20.10;;;3.60;;
30036;SDS011;36325;51.512;-0.382;2022-09-27T10:39:02;11.48;;;2.85;;
30036;SDS011;36325;51.512;-0.382;2022-09-27T10:41:39;8.45;;;2.25;;
30036;SDS011;36325;51.512;-0.382;2022-09-27T10:46:45;11.45;;;2.47;;
30036;SDS011;36325;51.512;-0.382;2022-09-27T10:52:25;8.07;;;2.03;;
30036;SDS011;36325;51.512;-0.382;2022-09-27T10:57:24;17.80;;;3.45;;
30036;SDS011;36325;51.512;-0.382;2022-09-27T11:00:02;16.17;;;3.20;;
30036;SDS011;36325;51.512;-0.382;2022-09-27T11:02:50;17.77;;;2.75;;
30036;SDS011;36325;51.512;-0.382;2022-09-27T11:07:54;11.35;;;2.13;;
30036;SDS011;36325;51.512;-0.382;2022-09-27T11:10:39;10.80;;;2.30;;
30036;SDS011;36325;51.512;-0.382;2022-09-27T11:13:15;10.32;;;2.10;;
30036;SDS011;36325;51.512;-0.382;2022-09-27T11:30:04;12.20;;;1.85;;
30036;SDS011;36325;51.512;-0.382;2022-09-27T11:36:04;20.83;;;3.00;;
30036;SDS011;36325;51.512;-0.382;2022-09-27T11:50:02;6.15;;;1.58;;
30036;SDS011;36325;51.512;-0.382;2022-09-27T12:01:32;7.47;;;0.95;;
30036;SDS011;36325;51.512;-0.382;2022-09-27T12:04:12;7.53;;;1.42;;
30036;SDS011;36325;51.512;-0.382;2022-09-27T12:07:23;6.13;;;1.23;;
30036;SDS011;36325;51.512;-0.382;2022-09-27T12:10:03;4.05;;;1.48;;
30036;SDS011;36325;51.512;-0.382;2022-09-27T12:12:40;8.23;;;1.70;;
30036;SDS011;36325;51.512;-0.382;2022-09-27T12:15:20;10.70;;;1.63;;
30036;SDS011;36325;51.512;-0.382;2022-09-27T12:17:53;7.28;;;1.70;;
30036;SDS011;36325;51.512;-0.382;2022-09-27T12:20:30;4.45;;;1.42;;
30036;SDS011;36325;51.512;-0.382;2022-09-27T12:23:07;2.58;;;0.98;;
30036;SDS011;36325;51.512;-0.382;2022-09-27T12:25:59;5.78;;;1.38;;
30036;SDS011;36325;51.512;-0.382;2022-09-27T12:31:13;7.93;;;1.50;;
30036;SDS011;36325;51.512;-0.382;2022-09-27T12:36:40;7.60;;;0.80;;
30036;SDS011;36325;51.512;-0.382;2022-09-27T12:39:18;8.57;;;0.80;;
30036;SDS011;36325;51.512;-0.382;2022-09-27T12:41:59;6.25;;;0.90;;
30036;SDS011;36325;51.512;-0.382;2022-09-27T12:44:41;5.57;;;0.85;;
30036;SDS011;36325;51.512;-0.382;2022-09-27T12:52:42;5.72;;;1.02;;
30036;SDS011;36325;51.512;-0.382;2022-09-27T12:58:15;7.18;;;1.13;;
30036;SDS011;36325;51.512;-0.382;2022-09-27T13:01:17;5.85;;;1.25;;
30036;SDS011;36325;51.512;-0.382;2022-09-27T13:12:54;13.48;;;1.98;;
30036;SDS011;36325;51.512;-0.382;2022-09-27T13:18:01;8.57;;;1.83;;
30036;SDS011;36325;51.512;-0.382;2022-09-27T13:20:44;3.60;;;1.00;;
30036;SDS011;36325;51.512;-0.382;2022-09-27T13:23:48;6.80;;;1.63;;
30036;SDS011;36325;51.512;-0.382;2022-09-27T13:29:26;2.85;;;0.77;;
30036;SDS011;36325;51.512;-0.382;2022-09-27T13:32:00;5.72;;;1.73;;
30036;SDS011;36325;51.512;-0.382;2022-09-27T13:34:49;2.28;;;0.95;;
30036;SDS011;36325;51.512;-0.382;2022-09-27T13:40:41;11.02;;;1.88;;
30036;SDS011;36325;51.512;-0.382;2022-09-27T13:46:37;4.93;;;1.48;;
30036;SDS011;36325;51.512;-0.382;2022-09-27T13:49:27;5.65;;;1.48;;
30036;SDS011;36325;51.512;-0.382;2022-09-27T13:52:21;3.45;;;0.85;;
30036;SDS011;36325;51.512;-0.382;2022-09-27T14:00:59;5.68;;;1.02;;
30036;SDS011;36325;51.512;-0.382;2022-09-27T14:03:36;5.88;;;1.08;;
30036;SDS011;36325;51.512;-0.382;2022-09-27T14:06:16;4.65;;;0.93;;
30036;SDS011;36325;51.512;-0.382;2022-09-27T14:08:48;5.72;;;1.20;;
30036;SDS011;36325;51.512;-0.382;2022-09-27T14:11:41;2.25;;;0.75;;
30036;SDS011;36325;51.512;-0.382;2022-09-27T14:14:15;6.00;;;1.20;;
30036;SDS011;36325;51.512;-0.382;2022-09-27T14:16:51;6.72;;;1.00;;
30036;SDS011;36325;51.512;-0.382;2022-09-27T14:19:21;4.88;;;0.82;;
30036;SDS011;36325;51.512;-0.382;2022-09-27T14:21:51;5.95;;;1.50;;
30036;SDS011;36325;51.512;-0.382;2022-09-27T14:24:41;2.67;;;0.80;;
30036;SDS011;36325;51.512;-0.382;2022-09-27T14:27:23;7.47;;;1.65;;
30036;SDS011;36325;51.512;-0.382;2022-09-27T14:30:22;6.03;;;0.98;;
30036;SDS011;36325;51.512;-0.382;2022-09-27T14:33:03;4.75;;;1.35;;
30036;SDS011;36325;51.512;-0.382;2022-09-27T14:35:46;9.00;;;1.30;;
30036;SDS011;36325;51.512;-0.382;2022-09-27T14:38:36;3.58;;;1.52;;
30036;SDS011;36325;51.512;-0.382;2022-09-27T14:41:16;5.60;;;1.25;;
30036;SDS011;36325;51.512;-0.382;2022-09-27T14:43:44;4.78;;;1.20;;
30036;SDS011;36325;51.512;-0.382;2022-09-27T14:46:26;6.97;;;2.50;;
30036;SDS011;36325;51.512;-0.382;2022-09-27T14:48:55;5.63;;;1.67;;
30036;SDS011;36325;51.512;-0.382;2022-09-27T14:51:28;2.30;;;1.02;;
30036;SDS011;36325;51.512;-0.382;2022-09-27T14:53:57;7.68;;;2.47;;
30036;SDS011;36325;51.512;-0.382;2022-09-27T14:56:28;8.45;;;2.05;;
30036;SDS011;36325;51.512;-0.382;2022-09-27T15:01:52;6.93;;;1.30;;
30036;SDS011;36325;51.512;-0.382;2022-09-27T15:04:20;6.65;;;2.58;;
30036;SDS011;36325;51.512;-0.382;2022-09-27T15:06:49;7.43;;;2.92;;
30036;SDS011;36325;51.512;-0.382;2022-09-27T15:09:17;17.27;;;2.90;;
30036;SDS011;36325;51.512;-0.382;2022-09-27T15:11:46;7.03;;;1.95;;
30036;SDS011;36325;51.512;-0.382;2022-09-27T15:14:19;5.00;;;1.35;;
30036;SDS011;36325;51.512;-0.382;2022-09-27T15:16:49;3.75;;;1.23;;
30036;SDS011;36325;51.512;-0.382;2022-09-27T15:21:55;5.22;;;1.25;;
30036;SDS011;36325;51.512;-0.382;2022-09-27T15:24:53;3.33;;;1.50;;
30036;SDS011;36325;51.512;-0.382;2022-09-27T15:27:31;7.88;;;1.55;;
30036;SDS011;36325;51.512;-0.382;2022-09-27T15:29:58;9.57;;;2.78;;
30036;SDS011;36325;51.512;-0.382;2022-09-27T15:32:26;6.68;;;2.33;;
30036;SDS011;36325;51.512;-0.382;2022-09-27T15:34:54;7.22;;;2.65;;
30036;SDS011;36325;51.512;-0.382;2022-09-27T15:42:58;12.35;;;2.25;;
30036;SDS011;36325;51.512;-0.382;2022-09-27T15:45:31;14.38;;;3.58;;
30036;SDS011;36325;51.512;-0.382;2022-09-27T15:48:15;8.65;;;2.03;;
30036;SDS011;36325;51.512;-0.382;2022-09-27T15:50:44;8.50;;;2.20;;
30036;SDS011;36325;51.512;-0.382;2022-09-27T15:53:38;9.63;;;1.65;;
30036;SDS011;36325;51.512;-0.382;2022-09-27T15:56:09;4.95;;;1.23;;
30036;SDS011;36325;51.512;-0.382;2022-09-27T15:58:39;8.05;;;1.58;;
30036;SDS011;36325;51.512;-0.382;2022-09-27T16:01:13;4.93;;;1.40;;
30036;SDS011;36325;51.512;-0.382;2022-09-27T16:03:42;8.07;;;1.10;;
30036;SDS011;36325;51.512;-0.382;2022-09-27T16:06:10;3.83;;;0.85;;
30036;SDS011;36325;51.512;-0.382;2022-09-27T16:08:39;3.65;;;0.90;;
30036;SDS011;36325;51.512;-0.382;2022-09-27T16:11:08;8.15;;;1.20;;
30036;SDS011;36325;51.512;-0.382;2022-09-27T16:13:40;7.22;;;1.02;;
30036;SDS011;36325;51.512;-0.382;2022-09-27T16:16:14;5.30;;;2.03;;
30036;SDS011;36325;51.512;-0.382;2022-09-27T16:18:43;10.95;;;2.08;;
30036;SDS011;36325;51.512;-0.382;2022-09-27T16:21:11;6.80;;;1.95;;
30036;SDS011;36325;51.512;-0.382;2022-09-27T16:23:39;9.77;;;1.60;;
30036;SDS011;36325;51.512;-0.382;2022-09-27T16:26:06;4.85;;;1.90;;
30036;SDS011;36325;51.512;-0.382;2022-09-27T16:28:33;10.10;;;2.03;;
30036;SDS011;36325;51.512;-0.382;2022-09-27T16:31:04;12.13;;;1.73;;
30036;SDS011;36325;51.512;-0.382;2022-09-27T16:33:32;12.30;;;2.83;;
30036;SDS011;36325;51.512;-0.382;2022-09-27T16:36:04;4.95;;;1.80;;
30036;SDS011;36325;51.512;-0.382;2022-09-27T16:38:34;8.90;;;2.30;;
30036;SDS011;36325;51.512;-0.382;2022-09-27T16:41:02;9.80;;;2.97;;
30036;SDS011;36325;51.512;-0.382;2022-09-27T16:43:29;8.27;;;2.50;;
30036;SDS011;36325;51.512;-0.382;2022-09-27T16:46:05;7.82;;;2.30;;
30036;SDS011;36325;51.512;-0.382;2022-09-27T16:48:34;5.72;;;1.73;;
30036;SDS011;36325;51.512;-0.382;2022-09-27T16:51:02;6.82;;;2.10;;
30036;SDS011;36325;51.512;-0.382;2022-09-27T16:53:49;7.22;;;1.45;;
30036;SDS011;36325;51.512;-0.382;2022-09-27T16:56:16;9.90;;;1.88;;
30036;SDS011;36325;51.512;-0.382;2022-09-27T16:58:45;7.75;;;1.55;;
30036;SDS011;36325;51.512;-0.382;2022-09-27T17:01:13;6.10;;;1.52;;
30036;SDS011;36325;51.512;-0.382;2022-09-27T17:03:47;11.20;;;2.20;;
30036;SDS011;36325;51.512;-0.382;2022-09-27T17:06:19;9.55;;;2.05;;
30036;SDS011;36325;51.512;-0.382;2022-09-27T17:08:46;4.07;;;1.30;;
30036;SDS011;36325;51.512;-0.382;2022-09-27T17:11:14;9.18;;;2.03;;
30036;SDS011;36325;51.512;-0.382;2022-09-27T17:13:42;6.97;;;1.60;;
30036;SDS011;36325;51.512;-0.382;2022-09-27T17:16:11;9.35;;;2.03;;
30036;SDS011;36325;51.512;-0.382;2022-09-27T17:18:38;17.92;;;1.85;;
30036;SDS011;36325;51.512;-0.382;2022-09-27T17:21:06;7.97;;;1.50;;
30036;SDS011;36325;51.512;-0.382;2022-09-27T17:23:34;5.97;;;1.55;;
30036;SDS011;36325;51.512;-0.382;2022-09-27T17:26:05;5.35;;;1.67;;
30036;SDS011;36325;51.512;-0.382;2022-09-27T17:28:35;14.98;;;2.70;;
30036;SDS011;36325;51.512;-0.382;2022-09-27T17:31:03;11.90;;;2.08;;
30036;SDS011;36325;51.512;-0.382;2022-09-27T17:33:35;7.07;;;2.13;;
30036;SDS011;36325;51.512;-0.382;2022-09-27T17:36:08;11.70;;;2.67;;
30036;SDS011;36325;51.512;-0.382;2022-09-27T17:38:40;7.35;;;1.80;;
30036;SDS011;36325;51.512;-0.382;2022-09-27T17:41:08;9.40;;;2.05;;
30036;SDS011;36325;51.512;-0.382;2022-09-27T17:43:38;5.57;;;1.50;;
30036;SDS011;36325;51.512;-0.382;2022-09-27T17:46:09;10.98;;;2.25;;
30036;SDS011;36325;51.512;-0.382;2022-09-27T17:48:36;14.75;;;2.53;;
30036;SDS011;36325;51.512;-0.382;2022-09-27T17:51:22;19.13;;;2.78;;
30036;SDS011;36325;51.512;-0.382;2022-09-27T17:53:50;8.48;;;2.80;;
30036;SDS011;36325;51.512;-0.382;2022-09-27T17:56:18;12.10;;;3.00;;
30036;SDS011;36325;51.512;-0.382;2022-09-27T17:58:46;10.63;;;2.08;;
30036;SDS011;36325;51.512;-0.382;2022-09-27T18:01:15;8.75;;;2.70;;